createdAt,value
2022-12-23T00:01:28.663Z,24.27
2022-12-23T00:04:00.355Z,23.77
2022-12-23T00:06:28.283Z,23.03
2022-12-23T00:08:58.899Z,31.03
2022-12-23T00:11:29.108Z,22.50
2022-12-23T00:14:21.104Z,18.63
2022-12-23T00:16:51.377Z,29.60
2022-12-23T00:19:19.231Z,25.70
2022-12-23T00:21:48.562Z,23.40
2022-12-23T00:24:16.203Z,20.00
2022-12-23T00:26:43.773Z,24.47
2022-12-23T00:29:11.536Z,25.77
2022-12-23T00:31:39.141Z,29.03
2022-12-23T00:34:06.655Z,20.10
2022-12-23T00:36:37.321Z,21.57
2022-12-23T00:39:24.387Z,20.10
2022-12-23T00:42:10.266Z,17.00
2022-12-23T00:44:37.913Z,18.40
2022-12-23T00:47:05.542Z,16.40
2022-12-23T00:49:42.162Z,22.93
2022-12-23T00:52:15.848Z,21.50
2022-12-23T00:54:43.777Z,16.37
2022-12-23T00:57:12.087Z,18.83
2022-12-23T00:59:39.713Z,17.47
2022-12-23T01:02:25.734Z,28.10
2022-12-23T01:05:11.880Z,26.17
2022-12-23T01:07:40.509Z,20.07
2022-12-23T01:10:09.310Z,27.20
2022-12-23T01:12:36.975Z,21.87
2022-12-23T01:15:05.587Z,22.47
2022-12-23T01:17:33.157Z,21.03
2022-12-23T01:20:00.792Z,18.60
2022-12-23T01:22:28.318Z,17.33
2022-12-23T01:24:55.947Z,26.80
2022-12-23T01:27:23.593Z,32.20
2022-12-23T01:29:51.248Z,28.00
2022-12-23T01:32:20.653Z,26.93
2022-12-23T01:34:50.284Z,26.30
2022-12-23T01:37:17.971Z,32.93
2022-12-23T01:39:45.541Z,29.90
2022-12-23T01:42:39.434Z,21.37
2022-12-23T01:45:27.603Z,28.20
2022-12-23T01:48:10.271Z,31.43
2022-12-23T01:51:06.111Z,32.73
2022-12-23T01:53:50.605Z,34.37
2022-12-23T01:56:41.391Z,30.37
2022-12-23T01:59:36.364Z,36.80
2022-12-23T02:02:22.610Z,33.33
2022-12-23T02:04:52.624Z,35.83
2022-12-23T02:07:40.535Z,44.20
2022-12-23T02:10:09.651Z,48.00
2022-12-23T02:14:01.233Z,43.53
2022-12-23T02:16:41.123Z,41.03
2022-12-23T02:19:44.867Z,42.97
2022-12-23T02:23:17.137Z,49.90
2022-12-23T02:27:14.208Z,39.43
2022-12-23T02:30:27.045Z,48.00
2022-12-23T02:33:45.212Z,53.83
2022-12-23T02:36:34.148Z,37.97
2022-12-23T02:39:35.147Z,41.50
2022-12-23T02:43:13.553Z,34.87
2022-12-23T02:46:05.188Z,40.20
2022-12-23T02:49:23.792Z,40.10
2022-12-23T02:51:59.205Z,35.83
2022-12-23T02:54:48.732Z,45.90
2022-12-23T02:57:27.290Z,53.33
2022-12-23T03:00:00.119Z,35.73
2022-12-23T03:02:28.083Z,37.47
2022-12-23T03:04:55.752Z,39.23
2022-12-23T03:07:43.838Z,40.30
2022-12-23T03:11:14.922Z,50.63
2022-12-23T03:14:41.361Z,36.53
2022-12-23T03:18:02.968Z,33.20
2022-12-23T03:21:11.093Z,37.23
2022-12-23T03:23:58.026Z,41.50
2022-12-23T03:26:54.834Z,36.47
2022-12-23T03:29:45.522Z,32.77
2022-12-23T03:32:17.133Z,43.17
2022-12-23T03:34:52.468Z,39.83
2022-12-23T03:37:27.302Z,41.90
2022-12-23T03:40:44.080Z,50.70
2022-12-23T03:43:54.895Z,44.30
2022-12-23T03:46:48.828Z,39.30
2022-12-23T03:49:48.094Z,42.97
2022-12-23T03:52:39.198Z,40.70
2022-12-23T03:55:26.598Z,41.77
2022-12-23T03:58:17.974Z,42.17
2022-12-23T04:01:23.811Z,41.80
2022-12-23T04:04:21.099Z,35.50
2022-12-23T04:07:22.221Z,42.13
2022-12-23T04:09:54.354Z,38.70
2022-12-23T04:12:29.932Z,47.67
2022-12-23T04:14:58.343Z,40.97
2022-12-23T04:17:26.060Z,41.00
2022-12-23T04:19:54.819Z,42.90
2022-12-23T04:22:22.477Z,38.97
2022-12-23T04:24:50.067Z,41.47
2022-12-23T04:27:18.344Z,41.17
2022-12-23T04:29:46.784Z,39.67
2022-12-23T04:32:14.457Z,40.47
2022-12-23T04:34:41.969Z,35.33
2022-12-23T04:37:10.978Z,28.13
2022-12-23T04:39:38.600Z,35.70
2022-12-23T04:42:06.325Z,30.90
2022-12-23T04:44:33.917Z,36.63
2022-12-23T04:47:01.607Z,34.03
2022-12-23T04:49:29.251Z,31.47
2022-12-23T04:51:56.947Z,34.67
2022-12-23T04:54:24.829Z,38.67
2022-12-23T04:56:52.452Z,32.10
2022-12-23T04:59:20.245Z,42.13
2022-12-23T05:01:48.190Z,37.03
2022-12-23T05:04:16.068Z,33.93
2022-12-23T05:06:43.768Z,31.90
2022-12-23T05:09:11.520Z,31.30
2022-12-23T05:11:42.353Z,29.00
2022-12-23T05:14:13.737Z,30.70
2022-12-23T05:16:41.456Z,28.50
2022-12-23T05:19:11.029Z,31.10
2022-12-23T05:21:38.846Z,34.13
2022-12-23T05:24:06.915Z,31.23
2022-12-23T05:26:34.522Z,30.43
2022-12-23T05:29:02.164Z,27.00
2022-12-23T05:31:29.771Z,24.03
2022-12-23T05:34:02.309Z,24.47
2022-12-23T05:36:33.641Z,21.50
2022-12-23T05:39:01.246Z,28.27
2022-12-23T05:41:29.016Z,31.50
2022-12-23T05:43:56.543Z,31.27
2022-12-23T05:46:26.900Z,27.37
2022-12-23T05:48:55.059Z,24.37
2022-12-23T05:51:22.901Z,28.67
2022-12-23T05:53:51.067Z,28.83
2022-12-23T05:56:19.306Z,23.00
2022-12-23T05:58:46.843Z,23.73
2022-12-23T06:01:15.784Z,23.10
2022-12-23T06:03:43.622Z,24.90
2022-12-23T06:06:11.367Z,25.00
2022-12-23T06:08:38.915Z,27.50
2022-12-23T06:11:07.196Z,23.93
2022-12-23T06:13:34.814Z,24.73
2022-12-23T06:16:04.142Z,24.60
2022-12-23T06:18:32.243Z,26.40
2022-12-23T06:20:59.873Z,33.10
2022-12-23T06:23:27.587Z,25.30
2022-12-23T06:26:03.917Z,25.37
2022-12-23T06:28:31.618Z,26.10
2022-12-23T06:30:59.306Z,26.53
2022-12-23T06:33:26.915Z,30.10
2022-12-23T06:35:54.564Z,30.97
2022-12-23T06:38:22.211Z,34.03
2022-12-23T06:40:49.875Z,28.60
2022-12-23T06:43:17.804Z,35.07
2022-12-23T06:45:49.928Z,35.30
2022-12-23T06:48:17.908Z,29.97
2022-12-23T06:50:46.452Z,30.50
2022-12-23T06:53:14.129Z,33.73
2022-12-23T06:55:41.828Z,29.67
2022-12-23T06:58:09.516Z,28.73
2022-12-23T07:00:37.527Z,31.60
2022-12-23T07:03:05.249Z,28.97
2022-12-23T07:05:37.526Z,27.60
2022-12-23T07:08:06.493Z,26.83
2022-12-23T07:10:35.177Z,31.90
2022-12-23T07:13:02.754Z,26.93
2022-12-23T07:15:30.363Z,24.97
2022-12-23T07:17:58.470Z,21.83
2022-12-23T07:20:26.629Z,21.57
2022-12-23T07:22:58.320Z,19.63
2022-12-23T07:25:26.230Z,22.23
2022-12-23T07:27:55.598Z,18.77
2022-12-23T07:30:24.193Z,20.47
2022-12-23T07:32:53.423Z,16.00
2022-12-23T07:35:36.473Z,18.90
2022-12-23T07:38:06.278Z,21.37
2022-12-23T07:40:34.092Z,32.47
2022-12-23T07:43:02.441Z,30.63
2022-12-23T07:45:30.894Z,33.53
2022-12-23T07:48:01.464Z,36.33
2022-12-23T07:50:29.656Z,34.47
2022-12-23T07:52:57.279Z,36.97
2022-12-23T07:55:24.963Z,36.50
2022-12-23T07:57:54.051Z,37.87
2022-12-23T08:00:22.657Z,39.10
2022-12-23T08:02:51.455Z,34.37
2022-12-23T08:05:20.141Z,33.63
2022-12-23T08:07:50.126Z,34.40
2022-12-23T08:10:18.125Z,33.03
2022-12-23T08:12:46.639Z,37.83
2022-12-23T08:15:14.477Z,41.83
2022-12-23T08:17:42.045Z,41.07
2022-12-23T08:20:10.602Z,46.00
2022-12-23T08:22:38.531Z,41.67
2022-12-23T08:25:08.482Z,45.10
2022-12-23T08:27:36.106Z,46.93
2022-12-23T08:30:04.193Z,45.17
2022-12-23T08:32:31.785Z,42.33
2022-12-23T08:34:59.329Z,45.70
2022-12-23T08:37:26.992Z,42.70
2022-12-23T08:39:55.157Z,41.53
2022-12-23T08:42:22.776Z,45.07
2022-12-23T08:44:50.866Z,51.20
2022-12-23T08:47:18.470Z,50.77
2022-12-23T08:49:46.085Z,49.20
2022-12-23T08:52:13.704Z,53.50
2022-12-23T08:54:41.303Z,43.33
2022-12-23T08:57:08.910Z,43.53
2022-12-23T08:59:36.616Z,34.77
2022-12-23T09:02:04.428Z,38.90
2022-12-23T09:04:32.111Z,36.17
2022-12-23T09:06:59.721Z,47.00
2022-12-23T09:09:28.084Z,37.40
2022-12-23T09:11:55.721Z,38.40
2022-12-23T09:14:23.272Z,34.70
2022-12-23T09:16:52.623Z,37.60
2022-12-23T09:19:20.904Z,34.77
2022-12-23T09:21:48.519Z,44.10
2022-12-23T09:24:16.672Z,33.50
2022-12-23T09:26:44.418Z,35.83
2022-12-23T09:29:11.973Z,36.63
2022-12-23T09:31:39.711Z,38.20
2022-12-23T09:34:07.422Z,30.10
2022-12-23T09:36:35.212Z,37.43
2022-12-23T09:39:03.544Z,32.60
2022-12-23T09:42:06.972Z,28.00
2022-12-23T09:45:16.341Z,26.97
2022-12-23T09:47:46.902Z,32.70
2022-12-23T09:50:34.651Z,37.23
2022-12-23T09:53:20.689Z,41.87
2022-12-23T09:56:15.536Z,33.20
2022-12-23T09:59:14.417Z,28.70
2022-12-23T10:02:14.929Z,32.33
2022-12-23T10:05:38.874Z,33.70
2022-12-23T10:08:48.966Z,29.07
2022-12-23T10:11:38.126Z,32.57
2022-12-23T10:14:32.171Z,31.90
2022-12-23T10:17:30.538Z,29.63
2022-12-23T10:20:06.045Z,27.43
2022-12-23T10:22:43.252Z,25.90
2022-12-23T10:25:37.066Z,29.10
2022-12-23T10:28:05.304Z,40.73
2022-12-23T10:34:00.739Z,29.43
2022-12-23T10:36:59.092Z,30.20
2022-12-23T10:39:59.979Z,30.63
2022-12-23T10:43:41.404Z,23.07
2022-12-23T10:46:48.661Z,29.10
2022-12-23T10:50:15.906Z,29.70
2022-12-23T10:52:47.261Z,30.13
2022-12-23T10:55:38.511Z,28.23
2022-12-23T10:58:18.534Z,23.93
2022-12-23T11:01:06.980Z,23.07
2022-12-23T11:04:08.970Z,23.87
2022-12-23T11:06:48.431Z,24.70
2022-12-23T11:09:25.521Z,25.83
2022-12-23T11:12:03.195Z,25.77
2022-12-23T11:14:56.776Z,16.73
2022-12-23T11:17:36.238Z,21.83
2022-12-23T11:20:20.707Z,26.50
2022-12-23T11:23:02.160Z,21.00
2022-12-23T11:25:41.381Z,27.10
2022-12-23T11:28:19.632Z,23.97
2022-12-23T11:31:14.584Z,23.60
2022-12-23T11:33:58.215Z,17.97
2022-12-23T11:36:30.688Z,23.70
2022-12-23T11:39:36.122Z,19.23
2022-12-23T11:42:17.237Z,22.83
2022-12-23T11:44:52.113Z,22.23
2022-12-23T11:47:41.189Z,30.00
2022-12-23T11:50:29.199Z,16.87
2022-12-23T11:53:25.364Z,21.73
2022-12-23T11:56:14.830Z,17.90
2022-12-23T11:59:05.324Z,21.83
2022-12-23T12:01:34.666Z,20.23
2022-12-23T12:04:17.865Z,18.17
2022-12-23T12:06:54.304Z,18.53
2022-12-23T12:09:25.907Z,24.43
2022-12-23T12:12:19.469Z,24.73
2022-12-23T12:15:00.493Z,19.70
2022-12-23T12:17:55.561Z,23.67
2022-12-23T12:20:44.407Z,19.07
2022-12-23T12:24:08.259Z,17.80
2022-12-23T12:26:47.179Z,22.57
2022-12-23T12:29:58.883Z,21.60
2022-12-23T12:33:33.476Z,19.60
2022-12-23T12:36:39.856Z,19.27
2022-12-23T12:39:54.508Z,25.53
2022-12-23T12:43:05.744Z,22.77
2022-12-23T12:46:26.960Z,24.40
2022-12-23T12:50:00.320Z,23.47
2022-12-23T12:52:36.301Z,28.53
2022-12-23T12:55:32.073Z,25.00
2022-12-23T12:58:04.995Z,25.03
2022-12-23T13:01:42.235Z,24.60
2022-12-23T13:05:20.118Z,21.40
2022-12-23T13:08:46.368Z,25.90
2022-12-23T13:12:17.573Z,24.40
2022-12-23T13:15:31.568Z,20.40
2022-12-23T13:19:04.715Z,19.30
2022-12-23T13:22:41.907Z,15.57
2022-12-23T13:25:59.969Z,14.70
2022-12-23T13:29:58.729Z,17.47
2022-12-23T13:33:17.839Z,19.40
2022-12-23T13:37:13.421Z,14.73
2022-12-23T13:40:10.912Z,13.13
2022-12-23T13:42:56.063Z,16.87
2022-12-23T13:45:39.759Z,11.80
2022-12-23T13:48:55.237Z,13.37
2022-12-23T13:51:46.356Z,12.20
2022-12-23T13:54:44.063Z,10.33
2022-12-23T13:57:35.617Z,10.93
2022-12-23T14:00:33.559Z,13.20
2022-12-23T14:03:01.440Z,11.80
2022-12-23T14:05:46.943Z,13.20
2022-12-23T14:08:20.442Z,15.27
2022-12-23T14:11:34.272Z,12.17
2022-12-23T14:14:23.173Z,14.50
2022-12-23T14:17:32.557Z,20.50
2022-12-23T14:20:45.226Z,16.77
2022-12-23T14:24:02.466Z,18.80
2022-12-23T14:27:28.492Z,23.30
2022-12-23T14:30:36.458Z,26.30
2022-12-23T14:34:08.207Z,22.97
2022-12-23T14:37:00.565Z,17.60
2022-12-23T14:39:34.228Z,15.40
2022-12-23T14:42:06.734Z,16.87
2022-12-23T14:44:38.956Z,17.57
2022-12-23T14:47:31.936Z,16.97
2022-12-23T14:50:37.658Z,16.27
2022-12-23T14:53:35.607Z,16.90
2022-12-23T14:56:15.435Z,15.03
2022-12-23T14:58:52.765Z,22.13
2022-12-23T15:01:57.223Z,22.10
2022-12-23T15:04:59.220Z,17.97
2022-12-23T15:07:41.216Z,19.33
2022-12-23T15:10:27.014Z,12.73
2022-12-23T15:13:06.462Z,11.57
2022-12-23T15:16:16.576Z,13.87
2022-12-23T15:19:21.993Z,10.60
2022-12-23T15:22:02.009Z,11.90
2022-12-23T15:24:37.699Z,15.73
2022-12-23T15:27:26.717Z,14.23
2022-12-23T15:29:55.674Z,16.40
2022-12-23T15:32:26.859Z,18.30
2022-12-23T15:35:06.652Z,21.07
2022-12-23T15:37:35.365Z,16.57
2022-12-23T15:40:13.391Z,15.13
2022-12-23T15:42:49.646Z,14.03
2022-12-23T15:45:43.081Z,18.17
2022-12-23T15:48:35.207Z,16.50
2022-12-23T15:54:40.128Z,14.50
2022-12-23T15:57:08.255Z,15.60
2022-12-23T15:59:39.764Z,11.20
2022-12-23T16:05:38.777Z,10.90
2022-12-23T16:08:30.285Z,13.10
2022-12-23T16:11:21.228Z,13.90
2022-12-23T16:14:22.437Z,14.97
2022-12-23T16:16:53.348Z,13.63
2022-12-23T16:19:56.388Z,14.10
2022-12-23T16:22:38.670Z,14.33
2022-12-23T16:25:31.882Z,17.70
2022-12-23T16:28:23.156Z,17.27
2022-12-23T16:30:58.689Z,21.33
2022-12-23T16:33:56.758Z,20.83
2022-12-23T16:36:27.091Z,18.70
2022-12-23T16:39:22.509Z,21.60
2022-12-23T16:41:50.971Z,22.80
2022-12-23T16:44:18.684Z,21.43
2022-12-23T16:46:51.749Z,23.67
2022-12-23T16:49:32.995Z,23.17
2022-12-23T16:52:14.240Z,24.13
2022-12-23T16:54:42.732Z,23.47
2022-12-23T16:57:11.083Z,24.77
2022-12-23T16:59:41.083Z,23.47
2022-12-23T17:02:28.252Z,23.20
2022-12-23T17:04:55.889Z,20.07
2022-12-23T17:07:25.132Z,26.73
2022-12-23T17:09:52.959Z,23.10
2022-12-23T17:12:20.764Z,25.00
2022-12-23T17:14:48.403Z,28.70
2022-12-23T17:17:16.578Z,25.27
2022-12-23T17:19:44.225Z,28.07
2022-12-23T17:22:13.687Z,27.07
2022-12-23T17:24:41.259Z,28.83
2022-12-23T17:27:18.424Z,31.87
2022-12-23T17:29:46.574Z,31.73
2022-12-23T17:32:18.833Z,28.17
2022-12-23T17:34:51.777Z,31.00
2022-12-23T17:37:23.115Z,24.23
2022-12-23T17:39:50.951Z,22.67
2022-12-23T17:42:25.786Z,24.33
2022-12-23T17:44:53.709Z,24.10
2022-12-23T17:47:23.314Z,20.57
2022-12-23T17:49:52.073Z,23.83
2022-12-23T17:52:24.328Z,21.73
2022-12-23T17:54:52.617Z,20.33
2022-12-23T17:57:26.824Z,24.03
2022-12-23T17:59:57.028Z,21.23
2022-12-23T18:02:35.570Z,13.60
2022-12-23T18:05:26.622Z,21.30
2022-12-23T18:08:00.638Z,19.53
2022-12-23T18:10:39.036Z,27.00
2022-12-23T18:13:19.583Z,21.17
2022-12-23T18:15:47.866Z,23.50
2022-12-23T18:18:32.101Z,22.23
2022-12-23T18:21:03.289Z,17.70
2022-12-23T18:23:34.620Z,28.40
2022-12-23T18:26:02.248Z,21.87
2022-12-23T18:28:29.974Z,22.80
2022-12-23T18:30:58.600Z,21.73
2022-12-23T18:33:28.923Z,21.40
2022-12-23T18:35:57.341Z,30.40
2022-12-23T18:38:24.985Z,32.27
2022-12-23T18:40:54.443Z,30.50
2022-12-23T18:43:25.674Z,30.83
2022-12-23T18:45:54.240Z,29.60
2022-12-23T18:48:22.296Z,29.10
2022-12-23T18:50:50.039Z,29.40
2022-12-23T18:53:24.916Z,26.77
2022-12-23T18:55:54.624Z,25.23
2022-12-23T18:58:23.665Z,22.83
2022-12-23T19:00:53.270Z,32.03
2022-12-23T19:03:30.931Z,24.60
2022-12-23T19:06:06.742Z,19.70
2022-12-23T19:08:37.780Z,27.87
2022-12-23T19:11:21.224Z,26.43
2022-12-23T19:13:49.077Z,19.87
2022-12-23T19:16:21.521Z,23.23
2022-12-23T19:18:51.081Z,20.53
2022-12-23T19:21:19.585Z,28.77
2022-12-23T19:23:47.178Z,23.83
2022-12-23T19:26:15.752Z,27.50
2022-12-23T19:28:43.654Z,30.10
2022-12-23T19:31:18.192Z,35.67
2022-12-23T19:33:47.607Z,23.37
2022-12-23T19:36:24.776Z,24.07
2022-12-23T19:38:53.129Z,24.33
2022-12-23T19:41:20.787Z,29.33
2022-12-23T19:43:48.404Z,26.97
2022-12-23T19:46:17.610Z,29.00
2022-12-23T19:48:54.046Z,31.47
2022-12-23T19:51:21.755Z,22.97
2022-12-23T19:53:52.826Z,25.93
2022-12-23T19:56:21.987Z,21.07
2022-12-23T19:58:50.566Z,26.60
2022-12-23T20:01:25.185Z,39.73
2022-12-23T20:03:56.453Z,23.13
2022-12-23T20:06:34.669Z,25.93
2022-12-23T20:09:06.536Z,28.77
2022-12-23T20:11:46.366Z,28.70
2022-12-23T20:14:19.101Z,27.73
2022-12-23T20:16:48.432Z,38.50
2022-12-23T20:19:17.987Z,33.83
2022-12-23T20:21:45.955Z,40.87
2022-12-23T20:24:16.039Z,32.17
2022-12-23T20:26:43.918Z,37.17
2022-12-23T20:29:11.882Z,28.30
2022-12-23T20:31:40.054Z,29.83
2022-12-23T20:34:16.586Z,29.60
2022-12-23T20:36:44.961Z,33.27
2022-12-23T20:39:13.084Z,33.17
2022-12-23T20:41:40.647Z,21.70
2022-12-23T20:46:55.928Z,29.37
2022-12-23T20:49:24.360Z,18.83
2022-12-23T20:51:52.557Z,15.53
2022-12-23T20:54:22.742Z,24.80
2022-12-23T20:56:52.668Z,25.17
2022-12-23T20:59:20.390Z,13.83
2022-12-23T21:01:48.009Z,28.37
2022-12-23T21:04:17.772Z,21.77
2022-12-23T21:06:46.135Z,18.10
2022-12-23T21:09:15.803Z,17.37
2022-12-23T21:11:48.472Z,16.97
2022-12-23T21:14:17.396Z,16.57
2022-12-23T21:16:45.552Z,15.90
2022-12-23T21:19:25.932Z,22.93
2022-12-23T21:21:54.155Z,24.47
2022-12-23T21:24:21.834Z,19.63
2022-12-23T21:26:57.099Z,20.93
2022-12-23T21:29:26.600Z,17.57
2022-12-23T21:31:55.196Z,17.70
2022-12-23T21:34:23.308Z,13.03
2022-12-23T21:36:51.010Z,18.83
2022-12-23T21:39:18.926Z,22.13
2022-12-23T21:41:46.527Z,18.10
2022-12-23T21:44:15.014Z,26.67
2022-12-23T21:46:42.956Z,21.80
2022-12-23T21:49:11.656Z,16.70
2022-12-23T21:51:41.285Z,25.33
2022-12-23T21:54:12.524Z,18.13
2022-12-23T21:56:41.674Z,21.27
2022-12-23T21:59:15.013Z,25.40
2022-12-23T22:01:44.147Z,21.10
2022-12-23T22:04:12.648Z,31.53
2022-12-23T22:06:45.184Z,19.43
2022-12-23T22:09:19.597Z,17.27
2022-12-23T22:11:48.446Z,25.20
2022-12-23T22:14:19.738Z,15.57
2022-12-23T22:16:47.529Z,19.50
2022-12-23T22:19:15.395Z,17.20
2022-12-23T22:21:43.091Z,17.30
2022-12-23T22:24:11.813Z,18.67
2022-12-23T22:26:41.205Z,22.60
2022-12-23T22:29:10.654Z,18.30
2022-12-23T22:31:50.541Z,15.00
2022-12-23T22:34:23.279Z,16.63
2022-12-23T22:36:51.401Z,24.50
2022-12-23T22:39:22.022Z,22.43
2022-12-23T22:41:53.391Z,14.47
2022-12-23T22:44:21.697Z,21.80
2022-12-23T22:46:49.953Z,24.53
2022-12-23T22:49:18.171Z,20.93
2022-12-23T22:51:46.447Z,19.93
2022-12-23T22:54:14.441Z,16.37
2022-12-23T22:56:42.221Z,27.73
2022-12-23T22:59:25.061Z,19.40
2022-12-23T23:01:54.509Z,20.87
2022-12-23T23:04:22.227Z,22.97
2022-12-23T23:06:59.411Z,21.60
2022-12-23T23:09:29.051Z,18.00
2022-12-23T23:11:56.686Z,25.20
2022-12-23T23:14:24.452Z,17.77
2022-12-23T23:16:52.215Z,11.30
2022-12-23T23:19:20.687Z,17.53
2022-12-23T23:21:48.928Z,19.67
2022-12-23T23:24:16.646Z,23.10
2022-12-23T23:26:44.238Z,18.17
2022-12-23T23:29:11.875Z,12.80
2022-12-23T23:31:42.368Z,21.90
2022-12-23T23:34:13.666Z,13.97
2022-12-23T23:36:42.394Z,16.83
2022-12-23T23:39:13.232Z,14.07
2022-12-23T23:41:41.470Z,17.90
2022-12-23T23:44:10.504Z,17.63
2022-12-23T23:46:39.429Z,12.60
2022-12-23T23:49:07.316Z,19.00
2022-12-23T23:51:35.067Z,18.07
2022-12-23T23:54:02.929Z,21.57
2022-12-23T23:56:37.464Z,14.90
2022-12-23T23:59:06.571Z,20.10
